createdAt,value
2022-10-26T00:01:44.099Z,63.14
2022-10-26T00:04:13.614Z,63.37
2022-10-26T00:06:43.210Z,62.98
2022-10-26T00:09:12.703Z,63.60
2022-10-26T00:11:44.971Z,63.77
2022-10-26T00:14:16.658Z,63.46
2022-10-26T00:16:46.814Z,63.68
2022-10-26T00:19:16.382Z,63.54
2022-10-26T00:21:45.910Z,63.96
2022-10-26T00:26:50.090Z,63.85
2022-10-26T00:29:25.944Z,64.11
2022-10-26T00:31:55.437Z,64.66
2022-10-26T00:34:25.195Z,64.78
2022-10-26T00:36:54.759Z,64.62
2022-10-26T00:39:24.430Z,64.65
2022-10-26T00:41:54.072Z,64.89
2022-10-26T00:44:42.074Z,64.62
2022-10-26T00:47:15.333Z,65.01
2022-10-26T00:49:46.709Z,64.92
2022-10-26T00:52:18.205Z,64.51
2022-10-26T00:54:47.838Z,64.98
2022-10-26T00:57:18.941Z,64.64
2022-10-26T00:59:48.905Z,64.88
2022-10-26T01:02:19.794Z,64.88
2022-10-26T01:04:49.279Z,64.69
2022-10-26T01:07:19.352Z,65.39
2022-10-26T01:09:49.613Z,65.19
2022-10-26T01:12:19.622Z,65.27
2022-10-26T01:14:50.042Z,65.16
2022-10-26T01:17:28.758Z,65.20
2022-10-26T01:20:25.805Z,64.80
2022-10-26T01:22:58.079Z,65.10
2022-10-26T01:25:42.636Z,65.48
2022-10-26T01:28:21.254Z,65.60
2022-10-26T01:30:53.172Z,65.37
2022-10-26T01:33:30.097Z,65.43
2022-10-26T01:36:04.546Z,65.79
2022-10-26T01:38:36.069Z,65.90
2022-10-26T01:41:09.643Z,65.94
2022-10-26T01:43:41.633Z,65.64
2022-10-26T01:46:12.826Z,65.79
2022-10-26T01:48:42.796Z,65.97
2022-10-26T01:51:13.099Z,65.82
2022-10-26T01:53:45.694Z,65.56
2022-10-26T01:56:19.826Z,65.18
2022-10-26T01:59:04.662Z,65.69
2022-10-26T02:01:49.434Z,65.68
2022-10-26T02:04:26.673Z,65.81
2022-10-26T02:07:02.648Z,66.10
2022-10-26T02:09:36.830Z,66.42
2022-10-26T02:12:12.310Z,66.54
2022-10-26T02:14:48.427Z,66.76
2022-10-26T02:17:24.750Z,66.97
2022-10-26T02:19:57.520Z,66.93
2022-10-26T02:22:30.052Z,66.68
2022-10-26T02:25:01.670Z,66.35
2022-10-26T02:27:34.280Z,66.62
2022-10-26T02:30:04.203Z,66.67
2022-10-26T02:32:36.685Z,66.44
2022-10-26T02:35:06.541Z,66.97
2022-10-26T02:37:37.707Z,66.81
2022-10-26T02:40:10.709Z,66.99
2022-10-26T02:42:41.537Z,66.94
2022-10-26T02:45:13.285Z,66.80
2022-10-26T02:47:44.514Z,66.76
2022-10-26T02:50:14.433Z,66.78
2022-10-26T02:52:52.055Z,66.62
2022-10-26T02:55:24.618Z,67.04
2022-10-26T02:57:57.035Z,66.87
2022-10-26T03:00:26.707Z,67.40
2022-10-26T03:02:59.155Z,67.80
2022-10-26T03:05:29.583Z,68.11
2022-10-26T03:07:59.618Z,68.10
2022-10-26T03:10:29.366Z,67.78
2022-10-26T03:12:59.471Z,67.37
2022-10-26T03:15:29.345Z,67.73
2022-10-26T03:18:00.432Z,67.92
2022-10-26T03:20:29.978Z,67.63
2022-10-26T03:22:59.661Z,67.85
2022-10-26T03:25:29.143Z,68.44
2022-10-26T03:27:59.561Z,68.17
2022-10-26T03:30:29.442Z,68.04
2022-10-26T03:33:00.319Z,68.18
2022-10-26T03:35:29.800Z,68.76
2022-10-26T03:37:59.654Z,68.46
2022-10-26T03:40:32.446Z,68.42
2022-10-26T03:43:01.934Z,68.45
2022-10-26T03:45:31.487Z,68.71
2022-10-26T03:48:03.062Z,68.80
2022-10-26T03:50:32.638Z,69.03
2022-10-26T03:53:02.102Z,69.07
2022-10-26T03:55:31.675Z,68.99
2022-10-26T03:58:01.178Z,68.30
2022-10-26T04:00:30.833Z,67.40
2022-10-26T04:03:01.309Z,66.87
2022-10-26T04:05:32.271Z,67.05
2022-10-26T04:08:03.357Z,66.51
2022-10-26T04:10:32.970Z,66.32
2022-10-26T04:13:03.221Z,66.02
2022-10-26T04:15:33.302Z,65.90
2022-10-26T04:18:03.878Z,65.75
2022-10-26T04:20:35.057Z,65.31
2022-10-26T04:23:05.735Z,65.51
2022-10-26T04:25:35.505Z,65.38
2022-10-26T04:28:05.965Z,65.39
2022-10-26T04:30:35.909Z,65.77
2022-10-26T04:33:06.245Z,66.25
2022-10-26T04:35:37.345Z,66.26
2022-10-26T04:38:07.933Z,66.54
2022-10-26T04:40:37.635Z,66.26
2022-10-26T04:43:07.206Z,66.26
2022-10-26T04:45:36.724Z,66.46
2022-10-26T04:48:07.131Z,66.30
2022-10-26T04:50:38.647Z,66.39
2022-10-26T04:53:09.218Z,66.51
2022-10-26T04:55:39.145Z,66.57
2022-10-26T04:58:08.690Z,66.40
2022-10-26T05:00:38.215Z,66.61
2022-10-26T05:03:08.711Z,66.31
2022-10-26T05:05:39.853Z,66.24
2022-10-26T05:08:09.601Z,66.24
2022-10-26T05:10:39.267Z,66.18
2022-10-26T05:13:10.455Z,66.24
2022-10-26T05:15:40.558Z,66.36
2022-10-26T05:18:10.326Z,66.52
2022-10-26T05:20:41.270Z,66.79
2022-10-26T05:23:12.459Z,66.49
2022-10-26T05:25:42.020Z,66.78
2022-10-26T05:28:13.377Z,66.25
2022-10-26T05:30:43.557Z,66.48
2022-10-26T05:33:13.969Z,66.85
2022-10-26T05:35:45.062Z,66.88
2022-10-26T05:38:15.410Z,66.21
2022-10-26T05:40:49.815Z,66.68
2022-10-26T05:43:20.215Z,66.25
2022-10-26T05:45:51.343Z,66.61
2022-10-26T05:48:21.217Z,66.88
2022-10-26T05:50:52.231Z,66.52
2022-10-26T05:53:21.743Z,66.38
2022-10-26T05:55:51.504Z,66.97
2022-10-26T05:58:21.600Z,66.76
2022-10-26T06:00:58.517Z,66.35
2022-10-26T06:03:35.808Z,65.73
2022-10-26T06:06:08.492Z,65.42
2022-10-26T06:08:38.430Z,65.41
2022-10-26T06:11:08.307Z,64.78
2022-10-26T06:13:38.415Z,64.56
2022-10-26T06:16:15.684Z,64.68
2022-10-26T06:18:49.107Z,64.51
2022-10-26T06:21:30.422Z,64.77
2022-10-26T06:24:04.296Z,64.84
2022-10-26T06:26:38.952Z,64.75
2022-10-26T06:29:17.891Z,64.37
2022-10-26T06:31:48.351Z,64.49
2022-10-26T06:34:22.456Z,64.54
2022-10-26T06:39:29.161Z,64.06
2022-10-26T06:41:58.983Z,64.72
2022-10-26T06:44:28.905Z,64.53
2022-10-26T06:47:04.505Z,64.74
2022-10-26T06:49:36.971Z,65.06
2022-10-26T06:52:11.724Z,64.00
2022-10-26T06:54:48.737Z,63.50
2022-10-26T06:57:19.637Z,63.78
2022-10-26T06:59:50.715Z,63.38
2022-10-26T07:02:20.865Z,62.51
2022-10-26T07:04:50.761Z,61.79
2022-10-26T07:07:22.431Z,62.05
2022-10-26T07:09:52.566Z,61.05
2022-10-26T07:12:22.607Z,60.59
2022-10-26T07:14:52.533Z,60.44
2022-10-26T07:17:22.429Z,60.14
2022-10-26T07:19:51.965Z,60.58
2022-10-26T07:22:22.935Z,60.41
2022-10-26T07:24:53.280Z,60.30
2022-10-26T07:27:24.009Z,60.29
2022-10-26T07:29:53.644Z,58.72
2022-10-26T07:32:23.671Z,58.94
2022-10-26T07:34:53.162Z,58.82
2022-10-26T07:37:24.091Z,58.52
2022-10-26T07:39:53.708Z,57.98
2022-10-26T07:42:23.224Z,57.96
2022-10-26T07:44:52.802Z,58.23
2022-10-26T07:47:22.341Z,56.66
2022-10-26T07:49:52.041Z,56.85
2022-10-26T07:52:21.617Z,56.72
2022-10-26T07:54:52.491Z,56.08
2022-10-26T07:57:21.963Z,55.90
2022-10-26T07:59:51.945Z,56.22
2022-10-26T08:02:21.696Z,55.62
2022-10-26T08:04:51.470Z,55.61
2022-10-26T08:07:21.745Z,54.88
2022-10-26T08:09:52.919Z,55.15
2022-10-26T08:12:23.315Z,53.99
2022-10-26T08:14:53.301Z,53.78
2022-10-26T08:17:23.754Z,53.58
2022-10-26T08:19:53.253Z,52.63
2022-10-26T08:22:22.760Z,53.00
2022-10-26T08:24:53.715Z,52.36
2022-10-26T08:27:23.266Z,51.39
2022-10-26T08:29:52.895Z,51.08
2022-10-26T08:32:22.430Z,51.41
2022-10-26T08:34:51.979Z,51.17
2022-10-26T08:37:22.844Z,50.24
2022-10-26T08:39:55.350Z,49.64
2022-10-26T08:42:31.567Z,50.40
2022-10-26T08:45:03.763Z,50.13
2022-10-26T08:47:35.803Z,49.74
2022-10-26T08:50:07.734Z,49.55
2022-10-26T08:52:39.928Z,49.16
2022-10-26T08:55:15.458Z,49.50
2022-10-26T08:57:48.152Z,49.54
2022-10-26T09:00:20.397Z,48.48
2022-10-26T09:02:50.840Z,48.86
2022-10-26T09:05:23.154Z,49.32
2022-10-26T09:07:57.463Z,48.81
2022-10-26T09:10:41.886Z,48.99
2022-10-26T09:13:17.506Z,47.58
2022-10-26T09:15:55.259Z,47.71
2022-10-26T09:18:32.965Z,48.04
2022-10-26T09:21:07.994Z,48.38
2022-10-26T09:23:46.207Z,48.32
2022-10-26T09:26:24.334Z,48.43
2022-10-26T09:28:53.810Z,48.08
2022-10-26T09:31:24.621Z,47.95
2022-10-26T09:33:54.772Z,47.84
2022-10-26T09:36:24.502Z,48.36
2022-10-26T09:38:58.078Z,48.09
2022-10-26T09:41:33.021Z,47.61
2022-10-26T09:44:07.013Z,46.66
2022-10-26T09:46:44.168Z,46.60
2022-10-26T09:49:15.096Z,46.26
2022-10-26T09:51:46.409Z,46.94
2022-10-26T09:54:17.652Z,45.41
2022-10-26T09:56:50.964Z,45.60
2022-10-26T09:59:22.532Z,45.20
2022-10-26T10:01:52.170Z,45.63
2022-10-26T10:04:24.293Z,45.03
2022-10-26T10:06:54.613Z,44.91
2022-10-26T10:09:25.822Z,44.62
2022-10-26T10:11:58.613Z,45.30
2022-10-26T10:14:29.363Z,45.05
2022-10-26T10:17:01.127Z,44.34
2022-10-26T10:19:31.327Z,44.52
2022-10-26T10:22:01.670Z,44.46
2022-10-26T10:24:36.982Z,44.38
2022-10-26T10:27:17.533Z,44.01
2022-10-26T10:29:47.864Z,44.75
2022-10-26T10:32:18.130Z,44.54
2022-10-26T10:34:48.343Z,45.21
2022-10-26T10:37:24.984Z,44.84
2022-10-26T10:39:58.228Z,44.77
2022-10-26T10:42:32.248Z,44.04
2022-10-26T10:45:02.907Z,43.99
2022-10-26T10:47:33.214Z,44.11
2022-10-26T10:50:04.729Z,44.08
2022-10-26T10:52:35.101Z,43.66
2022-10-26T10:55:12.004Z,41.99
2022-10-26T10:57:50.902Z,42.36
2022-10-26T11:00:21.374Z,43.36
2022-10-26T11:03:00.255Z,43.96
2022-10-26T11:08:03.809Z,43.63
2022-10-26T11:10:35.525Z,43.87
2022-10-26T11:13:15.337Z,43.38
2022-10-26T11:15:46.377Z,44.03
2022-10-26T11:18:18.692Z,42.94
2022-10-26T11:20:51.091Z,43.68
2022-10-26T11:23:23.675Z,43.33
2022-10-26T11:25:54.905Z,43.52
2022-10-26T11:28:30.346Z,42.85
2022-10-26T11:31:03.073Z,42.98
2022-10-26T11:33:35.440Z,43.47
2022-10-26T11:36:06.975Z,44.03
2022-10-26T11:38:46.523Z,44.16
2022-10-26T11:41:27.003Z,43.58
2022-10-26T11:44:02.692Z,43.45
2022-10-26T11:46:35.583Z,44.35
2022-10-26T11:49:06.773Z,44.22
2022-10-26T11:51:39.678Z,43.81
2022-10-26T11:54:12.664Z,43.89
2022-10-26T11:56:45.766Z,44.37
2022-10-26T11:59:19.323Z,44.53
2022-10-26T12:01:50.099Z,44.09
2022-10-26T12:04:20.250Z,43.64
2022-10-26T12:06:51.075Z,44.04
2022-10-26T12:09:22.817Z,44.04
2022-10-26T12:11:57.485Z,43.64
2022-10-26T12:14:31.526Z,43.29
2022-10-26T12:17:07.410Z,43.53
2022-10-26T12:19:41.591Z,43.84
2022-10-26T12:22:14.308Z,44.27
2022-10-26T12:25:05.642Z,44.30
2022-10-26T12:27:51.306Z,44.03
2022-10-26T12:30:26.990Z,43.22
2022-10-26T12:32:57.724Z,43.89
2022-10-26T12:35:34.886Z,44.09
2022-10-26T12:38:23.294Z,43.96
2022-10-26T12:41:09.939Z,44.02
2022-10-26T12:43:40.544Z,44.26
2022-10-26T12:46:43.345Z,43.92
2022-10-26T12:49:41.378Z,44.07
2022-10-26T12:52:24.173Z,43.56
2022-10-26T12:55:20.541Z,43.36
2022-10-26T12:57:55.252Z,43.32
2022-10-26T13:00:26.013Z,44.00
2022-10-26T13:03:09.633Z,43.73
2022-10-26T13:05:51.158Z,43.11
2022-10-26T13:08:22.109Z,42.75
2022-10-26T13:11:03.082Z,42.70
2022-10-26T13:13:34.426Z,42.89
2022-10-26T13:16:05.092Z,42.71
2022-10-26T13:18:43.311Z,42.19
2022-10-26T13:21:14.981Z,42.05
2022-10-26T13:23:47.536Z,41.90
2022-10-26T13:26:18.536Z,42.67
2022-10-26T13:28:49.462Z,42.75
2022-10-26T13:31:52.249Z,43.11
2022-10-26T13:34:22.785Z,43.95
2022-10-26T13:36:54.259Z,43.54
2022-10-26T13:39:27.250Z,43.32
2022-10-26T13:41:58.532Z,44.14
2022-10-26T13:44:30.512Z,44.01
2022-10-26T13:47:02.426Z,43.20
2022-10-26T13:49:35.904Z,43.07
2022-10-26T13:52:07.378Z,43.25
2022-10-26T13:54:40.637Z,43.66
2022-10-26T13:57:14.704Z,44.13
2022-10-26T13:59:45.450Z,44.38
2022-10-26T14:02:17.766Z,44.50
2022-10-26T14:04:48.634Z,44.52
2022-10-26T14:07:24.326Z,44.53
2022-10-26T14:09:56.721Z,44.61
2022-10-26T14:12:29.039Z,45.03
2022-10-26T14:15:03.213Z,44.58
2022-10-26T14:17:32.983Z,44.30
2022-10-26T14:20:03.428Z,43.41
2022-10-26T14:22:34.391Z,43.64
2022-10-26T14:25:05.592Z,44.01
2022-10-26T14:27:40.105Z,43.58
2022-10-26T14:30:23.297Z,44.07
2022-10-26T14:32:54.004Z,43.72
2022-10-26T14:35:26.363Z,44.24
2022-10-26T14:37:59.073Z,44.67
2022-10-26T14:40:31.669Z,44.96
2022-10-26T14:43:02.480Z,45.28
2022-10-26T14:45:47.975Z,45.23
2022-10-26T14:48:22.994Z,45.60
2022-10-26T14:50:59.418Z,45.88
2022-10-26T14:53:34.714Z,46.70
2022-10-26T14:56:06.997Z,46.25
2022-10-26T14:58:36.935Z,46.56
2022-10-26T15:01:16.928Z,46.83
2022-10-26T15:03:48.419Z,47.04
2022-10-26T15:06:30.365Z,47.27
2022-10-26T15:09:00.770Z,47.69
2022-10-26T15:11:32.835Z,47.94
2022-10-26T15:14:02.907Z,48.37
2022-10-26T15:16:35.235Z,48.59
2022-10-26T15:19:09.502Z,48.80
2022-10-26T15:21:47.118Z,48.59
2022-10-26T15:24:25.760Z,48.71
2022-10-26T15:26:56.949Z,49.46
2022-10-26T15:29:36.399Z,49.76
2022-10-26T15:32:06.565Z,49.79
2022-10-26T15:34:36.201Z,50.05
2022-10-26T15:37:05.769Z,50.53
2022-10-26T15:39:35.546Z,50.66
2022-10-26T15:42:13.258Z,50.63
2022-10-26T15:44:42.965Z,50.94
2022-10-26T15:47:18.282Z,51.18
2022-10-26T15:49:48.077Z,51.01
2022-10-26T15:52:17.758Z,51.07
2022-10-26T15:54:48.442Z,51.09
2022-10-26T15:57:21.429Z,51.79
2022-10-26T15:59:51.493Z,51.92
2022-10-26T16:02:21.082Z,51.97
2022-10-26T16:04:50.931Z,52.25
2022-10-26T16:07:21.433Z,52.64
2022-10-26T16:09:51.227Z,52.63
2022-10-26T16:12:22.552Z,52.97
2022-10-26T16:15:04.683Z,52.95
2022-10-26T16:17:35.837Z,53.14
2022-10-26T16:20:08.926Z,53.93
2022-10-26T16:22:40.407Z,53.67
2022-10-26T16:25:10.391Z,53.92
2022-10-26T16:27:41.586Z,54.32
2022-10-26T16:30:12.993Z,54.44
2022-10-26T16:32:42.823Z,54.76
2022-10-26T16:35:12.707Z,54.82
2022-10-26T16:37:43.173Z,54.67
2022-10-26T16:40:13.160Z,55.25
2022-10-26T16:42:44.784Z,55.17
2022-10-26T16:45:15.341Z,55.22
2022-10-26T16:47:44.990Z,55.61
2022-10-26T16:50:14.610Z,55.59
2022-10-26T16:52:45.503Z,55.96
2022-10-26T16:55:15.611Z,56.24
2022-10-26T16:57:46.775Z,56.02
2022-10-26T17:00:16.731Z,56.41
2022-10-26T17:02:46.414Z,56.55
2022-10-26T17:05:16.110Z,56.56
2022-10-26T17:07:48.281Z,56.81
2022-10-26T17:10:18.222Z,56.62
2022-10-26T17:12:50.086Z,56.53
2022-10-26T17:15:21.137Z,56.78
2022-10-26T17:17:51.711Z,56.58
2022-10-26T17:20:21.503Z,56.78
2022-10-26T17:22:51.741Z,57.22
2022-10-26T17:25:21.855Z,57.14
2022-10-26T17:27:52.770Z,56.58
2022-10-26T17:30:22.460Z,56.47
2022-10-26T17:32:52.461Z,56.03
2022-10-26T17:35:22.412Z,55.16
2022-10-26T17:37:52.446Z,55.14
2022-10-26T17:40:22.339Z,55.32
2022-10-26T17:42:53.298Z,55.22
2022-10-26T17:45:23.339Z,55.42
2022-10-26T17:47:53.347Z,55.83
2022-10-26T17:50:23.515Z,55.98
2022-10-26T17:52:53.434Z,55.89
2022-10-26T17:55:23.115Z,56.04
2022-10-26T17:57:54.063Z,56.41
2022-10-26T18:00:23.824Z,55.95
2022-10-26T18:02:53.692Z,56.01
2022-10-26T18:05:23.487Z,56.29
2022-10-26T18:07:53.297Z,56.44
2022-10-26T18:10:37.600Z,56.81
2022-10-26T18:13:11.103Z,57.52
2022-10-26T18:15:41.082Z,57.36
2022-10-26T18:18:11.624Z,57.46
2022-10-26T18:20:41.475Z,57.58
2022-10-26T18:23:11.201Z,57.58
2022-10-26T18:25:41.300Z,57.34
2022-10-26T18:28:13.006Z,57.72
2022-10-26T18:30:42.650Z,57.83
2022-10-26T18:33:12.478Z,57.50
2022-10-26T18:35:42.242Z,57.97
2022-10-26T18:38:11.943Z,57.59
2022-10-26T18:40:41.618Z,57.41
2022-10-26T18:43:13.058Z,56.48
2022-10-26T18:45:44.668Z,56.76
2022-10-26T18:48:14.391Z,56.44
2022-10-26T18:50:45.546Z,56.19
2022-10-26T18:53:16.621Z,56.04
2022-10-26T18:55:46.834Z,56.07
2022-10-26T18:58:17.841Z,56.12
2022-10-26T19:00:47.608Z,55.87
2022-10-26T19:03:17.336Z,56.16
2022-10-26T19:05:47.312Z,55.99
2022-10-26T19:08:16.951Z,56.43
2022-10-26T19:10:46.660Z,56.06
2022-10-26T19:13:18.287Z,56.34
2022-10-26T19:15:48.569Z,56.21
2022-10-26T19:18:18.367Z,56.70
2022-10-26T19:20:50.530Z,56.11
2022-10-26T19:23:20.258Z,56.69
2022-10-26T19:25:55.166Z,56.67
2022-10-26T19:28:26.386Z,56.80
2022-10-26T19:30:56.356Z,56.49
2022-10-26T19:33:26.240Z,56.82
2022-10-26T19:35:56.462Z,57.13
2022-10-26T19:38:26.250Z,56.73
2022-10-26T19:41:00.211Z,57.32
2022-10-26T19:43:32.203Z,57.46
2022-10-26T19:46:06.938Z,57.50
2022-10-26T19:48:36.898Z,57.68
2022-10-26T19:51:07.034Z,57.66
2022-10-26T19:53:37.086Z,57.55
2022-10-26T19:56:11.761Z,57.53
2022-10-26T19:58:43.791Z,57.87
2022-10-26T20:01:16.009Z,57.59
2022-10-26T20:03:46.394Z,57.23
2022-10-26T20:06:18.370Z,57.41
2022-10-26T20:08:48.964Z,57.10
2022-10-26T20:11:19.072Z,57.06
2022-10-26T20:13:50.546Z,56.86
2022-10-26T20:16:21.243Z,56.94
2022-10-26T20:18:50.787Z,56.96
2022-10-26T20:21:20.786Z,57.50
2022-10-26T20:23:50.405Z,57.36
2022-10-26T20:26:21.301Z,57.66
2022-10-26T20:28:53.061Z,57.68
2022-10-26T20:31:22.708Z,57.71
2022-10-26T20:33:52.970Z,57.97
2022-10-26T20:36:22.814Z,57.85
2022-10-26T20:38:52.752Z,57.70
2022-10-26T20:41:23.103Z,57.88
2022-10-26T20:43:57.227Z,57.96
2022-10-26T20:46:28.515Z,57.71
2022-10-26T20:48:58.686Z,57.78
2022-10-26T20:51:39.987Z,57.95
2022-10-26T20:54:15.149Z,57.87
2022-10-26T20:56:45.897Z,58.14
2022-10-26T20:59:21.565Z,58.08
2022-10-26T21:01:51.534Z,58.05
2022-10-26T21:04:21.182Z,58.60
2022-10-26T21:06:50.699Z,58.72
2022-10-26T21:09:23.231Z,58.28
2022-10-26T21:11:57.618Z,58.04
2022-10-26T21:14:29.250Z,58.20
2022-10-26T21:16:59.304Z,58.12
2022-10-26T21:19:28.883Z,58.25
2022-10-26T21:21:58.470Z,58.70
2022-10-26T21:24:28.029Z,58.32
2022-10-26T21:26:57.587Z,59.00
2022-10-26T21:29:27.114Z,59.06
2022-10-26T21:31:58.064Z,59.77
2022-10-26T21:34:27.672Z,59.39
2022-10-26T21:36:57.247Z,59.77
2022-10-26T21:39:26.782Z,59.81
2022-10-26T21:41:56.602Z,59.52
2022-10-26T21:44:40.416Z,59.65
2022-10-26T21:47:12.687Z,59.79
2022-10-26T21:52:16.806Z,60.23
2022-10-26T21:54:46.438Z,60.42
2022-10-26T21:57:16.731Z,60.19
2022-10-26T21:59:46.313Z,60.22
2022-10-26T22:02:17.288Z,60.69
2022-10-26T22:04:47.322Z,60.65
2022-10-26T22:07:17.158Z,60.72
2022-10-26T22:10:07.657Z,60.71
2022-10-26T22:12:37.324Z,60.75
2022-10-26T22:15:07.758Z,60.63
2022-10-26T22:17:39.947Z,60.74
2022-10-26T22:20:10.650Z,60.88
2022-10-26T22:22:40.459Z,61.17
2022-10-26T22:25:10.361Z,61.48
2022-10-26T22:27:39.875Z,61.08
2022-10-26T22:30:09.955Z,61.17
2022-10-26T22:32:40.876Z,60.65
2022-10-26T22:35:24.715Z,61.02
2022-10-26T22:37:58.448Z,61.04
2022-10-26T22:40:27.945Z,61.13
2022-10-26T22:42:57.429Z,60.88
2022-10-26T22:45:26.916Z,60.99
2022-10-26T22:47:57.849Z,61.51
2022-10-26T22:50:27.466Z,61.70
2022-10-26T22:52:56.980Z,61.43
2022-10-26T22:55:26.547Z,61.94
2022-10-26T22:57:56.014Z,61.73
2022-10-26T23:00:25.725Z,61.91
2022-10-26T23:02:55.322Z,61.79
2022-10-26T23:05:26.271Z,61.57
2022-10-26T23:07:55.778Z,61.86
2022-10-26T23:10:25.439Z,61.98
2022-10-26T23:12:55.587Z,61.93
2022-10-26T23:15:26.219Z,62.06
2022-10-26T23:17:55.761Z,61.97
2022-10-26T23:20:26.720Z,61.88
2022-10-26T23:22:56.238Z,62.65
2022-10-26T23:25:25.858Z,62.76
2022-10-26T23:27:55.379Z,62.70
2022-10-26T23:30:24.923Z,62.59
2022-10-26T23:32:56.083Z,62.29
2022-10-26T23:35:27.039Z,62.76
2022-10-26T23:37:58.100Z,62.87
2022-10-26T23:40:27.949Z,63.04
2022-10-26T23:42:57.455Z,63.17
2022-10-26T23:45:27.031Z,62.75
2022-10-26T23:47:56.814Z,62.76
2022-10-26T23:50:27.685Z,62.72
2022-10-26T23:52:57.282Z,62.51
2022-10-26T23:55:26.799Z,63.02
2022-10-26T23:57:56.474Z,62.96
